Time;durP1;ratioP1;P1;durP2;ratioP2;P2;SDS_P1;SDS_P2;PMS_P1;PMS_P2;Temp;Humidity;BMP_temperature;BMP_pressure;BME280_temperature;BME280_humidity;BME280_pressure;Samples;Min_cycle;Max_cycle;Signal;HPM_P1;HPM_P2
2021/09/13 00:01:29;;;;;;;;;;;;;;;;;;;;;
2021/09/13 00:04:05;;;;;;;;;;;;;;;;;;;;;
2021/09/13 00:06:37;;;;;;;61.75;19.32;;;;;;;15.25;100.00;100753.73;1432810;97;21107;-86
2021/09/13 00:09:02;;;;;;;71.37;21.85;;;;;;;15.20;100.00;100755.47;1396100;100;21095;-84
2021/09/13 00:11:31;;;;;;;57.55;20.95;;;;;;;15.24;100.00;100754.70;1452637;93;21076;-84
2021/09/13 00:14:00;;;;;;;48.55;21.27;;;;;;;15.28;100.00;100758.20;1587484;88;22065;-84
2021/09/13 00:16:28;;;;;;;40.45;19.98;;;;;;;15.35;100.00;100761.06;1662612;84;21121;-84
2021/09/13 00:18:56;;;;;;;27.32;17.70;;;;;;;15.42;100.00;100766.58;1668764;84;21077;-86
2021/09/13 00:21:23;;;;;;;28.42;19.48;;;;;;;15.47;100.00;100759.09;1668938;86;21065;-87
2021/09/13 00:23:53;;;;;;;30.08;19.60;;;;;;;15.43;100.00;100765.61;1668933;85;21034;-86
2021/09/13 00:26:23;;;;;;;30.97;18.00;;;;;;;15.33;100.00;100764.34;1669081;84;21572;-88
2021/09/13 00:28:52;;;;;;;;;;;;;;;15.21;100.00;100757.12;1671493;84;21011;-87
2021/09/13 00:31:23;;;;;;;32.33;17.05;;;;;;;15.07;100.00;100757.55;1666356;84;20128;-88
2021/09/13 00:33:51;;;;;;;26.35;16.50;;;;;;;14.92;100.00;100762.42;1668908;85;21047;-86
2021/09/13 00:36:19;;;;;;;30.27;17.48;;;;;;;14.85;100.00;100759.52;1649656;86;21811;-85
2021/09/13 00:38:48;;;;;;;26.50;15.78;;;;;;;14.81;100.00;100766.84;1668959;84;20955;-87
2021/09/13 00:41:16;;;;;;;27.42;16.75;;;;;;;14.85;100.00;100758.71;1649550;86;21066;-85
2021/09/13 00:43:45;;;;;;;30.72;15.98;;;;;;;14.86;100.00;100757.75;1669241;85;21046;-85
2021/09/13 00:46:14;;;;;;;30.97;15.93;;;;;;;14.81;100.00;100755.05;1669141;85;21077;-84
2021/09/13 00:48:42;;;;;;;35.28;16.55;;;;;;;14.79;100.00;100764.84;1669353;84;21157;-88
2021/09/13 00:51:12;;;;;;;28.98;16.10;;;;;;;14.83;100.00;100762.30;1668938;84;21121;-87
2021/09/13 00:53:40;;;;;;;21.35;15.05;;;;;;;14.87;100.00;100761.53;1649570;86;21031;-87
2021/09/13 00:56:08;;;;;;;23.60;15.90;;;;;;;14.82;100.00;100761.95;1649573;86;21093;-87
2021/09/13 00:58:37;;;;;;;28.35;16.25;;;;;;;14.78;100.00;100763.18;1668892;85;21528;-89
2021/09/13 01:01:05;;;;;;;27.27;15.68;;;;;;;14.78;100.00;100759.74;1668519;85;21192;-87
2021/09/13 01:03:34;;;;;;;27.65;16.27;;;;;;;14.76;100.00;100764.29;1649515;86;21055;-84
2021/09/13 01:06:01;;;;;;;26.62;15.43;;;;;;;14.78;100.00;100761.87;1649637;86;21026;-88
2021/09/13 01:08:30;;;;;;;23.73;14.70;;;;;;;14.79;100.00;100762.72;1668549;85;21002;-87
2021/09/13 01:11:00;;;;;;;33.80;16.45;;;;;;;14.80;100.00;100759.94;1669004;84;21047;-82
2021/09/13 01:13:28;;;;;;;25.23;14.83;;;;;;;14.83;100.00;100759.67;1668836;85;21007;-86
2021/09/13 01:15:56;;;;;;;26.52;14.47;;;;;;;14.88;100.00;100763.66;1649542;86;20963;-86
2021/09/13 01:18:24;;;;;;;25.17;15.40;;;;;;;14.90;100.00;100765.66;1669001;85;21062;-86
2021/09/13 01:20:52;;;;;;;26.77;14.65;;;;;;;14.90;100.00;100760.42;1649424;86;21062;-86
2021/09/13 01:23:32;;;;;;;23.95;13.68;;;;;;;14.92;100.00;100771.11;1649629;86;21041;-87
2021/09/13 01:26:13;;;;;;;;;;;;;;;;;;;;;
2021/09/13 01:29:00;;;;;;;;;;;;;;;;;;;;;
2021/09/13 01:31:36;;;;;;;;;;;;;;;;;;;;;
2021/09/13 01:34:14;;;;;;;;;;;;;;;;;;;;;
2021/09/13 01:36:54;;;;;;;;;;;;;;;;;;;;;
2021/09/13 01:39:23;;;;;;;;;;;;;;;;;;;;;
2021/09/13 01:41:44;;;;;;;16.67;11.30;;;;;;;14.73;100.00;100765.90;1277246;108;21189;-84
2021/09/13 01:44:14;;;;;;;23.40;11.43;;;;;;;14.73;100.00;100769.33;1430933;97;21122;-85
2021/09/13 01:46:43;;;;;;;31.93;12.03;;;;;;;14.62;100.00;100759.80;1613689;86;21026;-85
2021/09/13 01:49:13;;;;;;;20.48;11.20;;;;;;;14.48;100.00;100761.02;1697631;83;21503;-86
2021/09/13 01:51:40;;;;;;;17.15;10.80;;;;;;;14.39;100.00;100763.15;1703723;82;21081;-84
2021/09/13 01:54:08;;;;;;;21.33;10.38;;;;;;;14.33;100.00;100761.08;1725316;82;21220;-86
2021/09/13 01:56:37;;;;;;;14.93;10.45;;;;;;;14.26;100.00;100756.05;1735948;82;21054;-87
2021/09/13 01:59:05;;;;;;;60.40;13.13;;;;;;;14.17;100.00;100755.90;1729998;82;21066;-87
2021/09/13 02:01:33;;;;;;;18.37;11.40;;;;;;;14.17;100.00;100748.53;1707634;83;21062;-84
2021/09/13 02:04:03;;;;;;;27.00;11.85;;;;;;;14.18;100.00;100743.65;1707343;83;21117;-86
2021/09/13 02:06:32;;;;;;;36.88;10.98;;;;;;;14.15;100.00;100745.22;1707636;83;21522;-86
2021/09/13 02:09:00;;;;;;;14.07;10.30;;;;;;;14.12;100.00;100742.39;1694153;82;21059;-86
2021/09/13 02:11:27;;;;;;;15.85;10.28;;;;;;;14.13;100.00;100738.81;1726692;81;21137;-86
2021/09/13 02:14:04;;;;;;;15.93;9.95;;;;;;;14.11;100.00;100740.73;1737188;81;21097;-87
2021/09/13 02:16:40;;;;;;;;;;;;;;;;;;;;;
2021/09/13 02:19:02;;;;;;;20.08;10.20;;;;;;;14.01;100.00;100743.80;1675245;82;21034;-85
2021/09/13 02:21:31;;;;;;;20.05;10.10;;;;;;;13.99;100.00;100741.33;1718254;82;21489;-86
2021/09/13 02:23:58;;;;;;;20.30;11.78;;;;;;;13.98;100.00;100744.09;1708341;82;21030;-85
2021/09/13 02:26:25;;;;;;;17.27;11.55;;;;;;;13.98;100.00;100748.83;1684529;83;21003;-86
2021/09/13 02:28:53;;;;;;;25.65;11.30;;;;;;;13.97;100.00;100751.59;1708232;83;21074;-85
2021/09/13 02:31:20;;;;;;;19.32;10.23;;;;;;;14.00;100.00;100749.53;1717966;83;21305;-86
2021/09/13 02:33:48;;;;;;;16.25;9.65;;;;;;;14.06;100.00;100748.14;1707791;83;21180;-87
2021/09/13 02:36:17;;;;;;;17.65;9.25;;;;;;;14.12;100.00;100751.56;1718081;82;21050;-84
2021/09/13 02:38:45;;;;;;;19.12;9.43;;;;;;;14.14;100.00;100753.53;1708145;83;21099;-87
2021/09/13 02:41:12;;;;;;;14.15;8.40;;;;;;;14.23;100.00;100753.69;1708089;82;21155;-85
2021/09/13 02:43:40;;;;;;;25.72;9.88;;;;;;;14.29;100.00;100759.22;1718151;82;21604;-84
2021/09/13 02:46:07;;;;;;;18.75;9.48;;;;;;;14.33;100.00;100754.53;1708071;83;21018;-87
2021/09/13 02:48:36;;;;;;;35.95;10.72;;;;;;;14.31;100.00;100749.91;1718042;82;21061;-87
2021/09/13 02:51:10;;;;;;;40.77;10.50;;;;;;;14.29;100.00;100749.23;1718144;82;21093;-86
2021/09/13 02:53:40;;;;;;;36.85;10.60;;;;;;;14.31;100.00;100749.44;1717799;82;21693;-87
2021/09/13 02:56:09;;;;;;;43.28;10.55;;;;;;;14.35;100.00;100753.43;1718161;82;21145;-86
2021/09/13 02:58:37;;;;;;;22.17;10.10;;;;;;;14.35;100.00;100752.62;1706546;83;21035;-86
2021/09/13 03:01:04;;;;;;;27.27;9.63;;;;;;;14.32;100.00;100750.26;1726556;82;21647;-86
2021/09/13 03:03:32;;;;;;;23.10;10.48;;;;;;;14.26;100.00;100752.13;1712162;83;21010;-89
2021/09/13 03:05:59;;;;;;;17.20;9.90;;;;;;;14.20;100.00;100758.25;1734539;82;21157;-88
2021/09/13 03:08:27;;;;;;;18.67;10.25;;;;;;;14.17;100.00;100755.08;1719630;82;21050;-85
2021/09/13 03:10:54;;;;;;;24.43;9.88;;;;;;;14.13;100.00;100758.45;1718349;83;21014;-85
2021/09/13 03:13:21;;;;;;;43.98;11.30;;;;;;;14.10;100.00;100760.02;1718297;83;21120;-85
2021/09/13 03:15:50;;;;;;;54.55;13.38;;;;;;;14.10;100.00;100761.33;1718368;83;20942;-86
2021/09/13 03:18:17;;;;;;;81.63;15.30;;;;;;;14.14;100.00;100759.27;1718393;83;21190;-84
2021/09/13 03:20:45;;;;;;;47.53;14.47;;;;;;;14.21;100.00;100761.69;1697590;83;21073;-90
2021/09/13 03:23:12;;;;;;;80.42;16.05;;;;;;;14.24;100.00;100759.27;1697696;83;21069;-87
2021/09/13 03:25:40;;;;;;;29.77;15.90;;;;;;;14.31;100.00;100763.00;1674547;83;20978;-84
2021/09/13 03:28:13;;;;;;;88.72;19.52;;;;;;;14.45;100.00;100764.41;1718563;83;20959;-88
2021/09/13 03:30:43;;;;;;;49.77;16.67;;;;;;;14.57;100.00;100763.32;1697552;83;21125;-91
2021/09/13 03:33:13;;;;;;;38.85;14.45;;;;;;;14.64;100.00;100755.25;1715175;83;21110;-88
2021/09/13 03:35:53;;;;;;;35.75;12.00;;;;;;;14.71;100.00;100763.39;1718179;83;21089;-88
2021/09/13 03:38:15;;;;;;;40.60;13.83;;;;;;;14.72;100.00;100757.19;1692712;83;21108;-88
2021/09/13 03:40:43;;;;;;;28.57;12.93;;;;;;;14.69;100.00;100756.17;1718168;83;21555;-87
2021/09/13 03:43:10;;;;;;;27.22;12.60;;;;;;;14.64;100.00;100759.64;1732878;82;22025;-84
2021/09/13 03:45:37;;;;;;;22.05;12.23;;;;;;;14.55;100.00;100763.94;1731761;82;20994;-87
2021/09/13 03:48:09;;;;;;;26.85;12.40;;;;;;;14.49;100.00;100763.18;1725506;81;21009;-85
2021/09/13 03:50:38;;;;;;;31.77;13.60;;;;;;;14.42;100.00;100763.38;1734443;82;21101;-88
2021/09/13 03:53:05;;;;;;;30.23;14.13;;;;;;;14.31;100.00;100761.23;1723042;82;21038;-86
2021/09/13 03:55:35;;;;;;;23.85;14.10;;;;;;;14.26;100.00;100758.17;1708156;82;21107;-84
2021/09/13 03:58:06;;;;;;;20.40;13.50;;;;;;;14.17;100.00;100749.35;1691203;83;21041;-86
2021/09/13 04:00:34;;;;;;;37.15;14.28;;;;;;;14.09;100.00;100753.13;1714824;82;26675;-85
2021/09/13 04:03:04;;;;;;;22.87;13.83;;;;;;;14.03;100.00;100754.98;1735003;82;20987;-86
2021/09/13 04:05:33;;;;;;;19.17;13.37;;;;;;;14.00;100.00;100762.63;1733420;81;21408;-84
2021/09/13 04:11:07;;;;;;;19.30;13.35;;;;;;;13.97;100.00;100762.88;1679216;84;21665;-86
2021/09/13 04:13:34;;;;;;;25.17;15.00;;;;;;;14.02;100.00;100766.41;1717342;82;21003;-86
2021/09/13 04:16:09;;;;;;;27.48;15.23;;;;;;;14.10;100.00;100767.06;1725330;82;21003;-87
2021/09/13 04:18:49;;;;;;;22.25;15.38;;;;;;;14.15;100.00;100764.36;1721365;82;21037;-87
2021/09/13 04:21:24;;;;;;;29.02;15.88;;;;;;;14.23;100.00;100769.41;1711636;82;21582;-84
2021/09/13 04:24:02;;;;;;;26.52;16.57;;;;;;;14.28;100.00;100761.98;1714959;82;21006;-85
2021/09/13 04:26:31;;;;;;;25.72;15.83;;;;;;;14.34;100.00;100761.44;1708489;83;21100;-86
2021/09/13 04:29:13;;;;;;;24.30;16.50;;;;;;;14.37;100.00;100762.48;1715263;83;21001;-86
2021/09/13 04:31:42;;;;;;;25.88;16.62;;;;;;;14.40;100.00;100763.50;1716798;82;21089;-86
2021/09/13 04:34:17;;;;;;;27.48;16.82;;;;;;;14.42;100.00;100768.13;1718823;83;21981;-88
2021/09/13 04:40:19;;;;;;;;;;;;;;;;;;;;;
2021/09/13 04:42:46;;;;;;;22.10;14.93;;;;;;;14.45;100.00;100772.27;1518744;89;21125;-87
2021/09/13 04:45:21;;;;;;;22.95;15.08;;;;;;;14.53;100.00;100766.35;1663664;83;21057;-86
2021/09/13 04:47:59;;;;;;;29.00;14.93;;;;;;;14.60;100.00;100766.14;1606803;88;21094;-86
2021/09/13 04:50:30;;;;;;;24.27;14.35;;;;;;;14.66;100.00;100767.73;1674592;83;21030;-85
2021/09/13 04:53:05;;;;;;;22.50;14.85;;;;;;;14.73;100.00;100770.64;1662774;84;21056;-86
2021/09/13 04:55:34;;;;;;;23.42;15.70;;;;;;;14.79;100.00;100772.70;1678109;84;21524;-86
2021/09/13 04:58:03;;;;;;;21.15;14.33;;;;;;;14.88;100.00;100776.77;1668391;86;21101;-86
2021/09/13 05:00:30;;;;;;;40.08;18.98;;;;;;;14.93;100.00;100774.57;1668658;86;21153;-87
2021/09/13 05:02:58;;;;;;;38.38;20.62;;;;;;;14.96;100.00;100772.96;1668581;86;21054;-86
2021/09/13 05:05:25;;;;;;;27.17;18.62;;;;;;;15.01;100.00;100773.85;1639905;86;21639;-86
2021/09/13 05:07:53;;;;;;;29.15;16.65;;;;;;;15.04;100.00;100770.47;1668840;84;21058;-85
2021/09/13 05:10:21;;;;;;;27.30;15.60;;;;;;;15.11;100.00;100765.50;1718445;82;21123;-84
2021/09/13 05:12:50;;;;;;;26.95;14.70;;;;;;;15.17;100.00;100764.11;1698281;83;20958;-85
2021/09/13 05:15:21;;;;;;;26.30;13.90;;;;;;;15.23;100.00;100764.34;1683755;84;21018;-86
2021/09/13 05:17:48;;;;;;;27.77;12.95;;;;;;;15.30;100.00;100756.74;1663228;85;21109;-86
2021/09/13 05:20:15;;;;;;;19.32;12.40;;;;;;;15.38;100.00;100756.86;1683802;85;21007;-86
2021/09/13 05:22:42;;;;;;;26.75;12.75;;;;;;;15.46;100.00;100756.97;1614698;86;20982;-84
2021/09/13 05:25:09;;;;;;;39.55;14.80;;;;;;;15.57;100.00;100761.70;1654468;86;21147;-87
2021/09/13 05:27:36;;;;;;;22.10;12.75;;;;;;;15.67;100.00;100761.15;1683341;85;21053;-84
2021/09/13 05:30:05;;;;;;;23.05;11.85;;;;;;;15.76;100.00;100760.28;1683679;85;21050;-85
2021/09/13 05:32:33;;;;;;;21.77;11.80;;;;;;;15.87;100.00;100763.73;1655795;86;21094;-82
2021/09/13 05:35:01;;;;;;;22.20;12.40;;;;;;;15.97;100.00;100761.88;1664125;85;21144;-86
2021/09/13 05:37:28;;;;;;;17.85;10.93;;;;;;;16.07;100.00;100760.50;1683761;85;21801;-87
2021/09/13 05:39:55;;;;;;;17.60;11.05;;;;;;;16.19;100.00;100762.44;1636794;86;21081;-85
2021/09/13 05:42:23;;;;;;;16.60;11.08;;;;;;;16.30;100.00;100760.91;1683650;85;21108;-85
2021/09/13 05:44:50;;;;;;;22.22;10.43;;;;;;;16.42;100.00;100756.27;1648827;85;21160;-86
2021/09/13 05:47:18;;;;;;;19.02;10.48;;;;;;;16.52;100.00;100763.56;1685192;83;21056;-83
2021/09/13 05:49:46;;;;;;;15.72;10.20;;;;;;;16.63;100.00;100759.06;1681968;83;21093;-86
2021/09/13 05:52:15;;;;;;;15.18;9.30;;;;;;;16.74;100.00;100757.52;1667836;83;21007;-86
2021/09/13 05:54:44;;;;;;;14.40;9.45;;;;;;;16.85;100.00;100756.45;1708658;83;21506;-86
2021/09/13 05:57:12;;;;;;;12.25;9.00;;;;;;;16.96;100.00;100759.34;1715267;83;20967;-87
2021/09/13 05:59:39;;;;;;;22.82;10.18;;;;;;;17.10;100.00;100756.14;1688947;83;21455;-86
2021/09/13 06:02:10;;;;;;;13.30;8.50;;;;;;;17.24;100.00;100762.65;1696543;83;21140;-85
2021/09/13 06:04:38;;;;;;;13.75;8.60;;;;;;;17.38;100.00;100755.98;1659386;84;21066;-83
2021/09/13 06:07:08;;;;;;;9.90;7.72;;;;;;;17.53;100.00;100757.52;1672301;83;21092;-85
2021/09/13 06:09:36;;;;;;;10.75;7.78;;;;;;;17.69;100.00;100758.09;1677182;84;21098;-86
2021/09/13 06:12:04;;;;;;;16.48;7.58;;;;;;;17.86;100.00;100760.80;1673417;85;21101;-83
2021/09/13 06:14:37;;;;;;;11.00;6.78;;;;;;;17.99;100.00;100762.50;1664460;85;21077;-81
2021/09/13 06:17:04;;;;;;;13.20;6.87;;;;;;;18.14;100.00;100761.39;1668829;85;21065;-86
2021/09/13 06:19:31;;;;;;;13.88;6.67;;;;;;;18.27;100.00;100756.94;1639877;86;21095;-84
2021/09/13 06:21:59;;;;;;;11.57;6.80;;;;;;;18.42;100.00;100757.98;1664110;84;21074;-84
2021/09/13 06:24:27;;;;;;;9.95;6.33;;;;;;;18.57;100.00;100759.95;1672521;84;21096;-84
2021/09/13 06:26:54;;;;;;;11.50;6.33;;;;;;;18.73;100.00;100760.44;1674448;84;21822;-86
2021/09/13 06:29:21;;;;;;;12.40;6.05;;;;;;;18.85;100.00;100760.92;1667950;84;21033;-84
2021/09/13 06:31:50;;;;;;;11.53;6.83;;;;;;;18.98;100.00;100761.30;1653766;86;22349;-85
2021/09/13 06:34:18;;;;;;;11.20;6.67;;;;;;;19.11;100.00;100760.75;1668288;84;21116;-83
2021/09/13 06:36:49;;;;;;;15.95;6.22;;;;;;;19.26;100.00;100765.36;1648890;84;21074;-82
2021/09/13 06:39:17;;;;;;;12.23;6.40;;;;;;;19.41;100.00;100766.30;1643611;86;21097;-82
2021/09/13 06:41:45;;;;;;;11.57;5.00;;;;;;;19.53;100.00;100763.61;1735332;81;21033;-83
2021/09/13 06:44:21;;;;;;;14.55;6.00;;;;;;;19.66;100.00;100766.22;1727550;82;21049;-85
2021/09/13 06:46:45;;;;;;;18.32;6.15;;;;;;;19.77;100.00;100763.69;1700552;83;21386;-85
2021/09/13 06:49:12;;;;;;;9.13;5.92;;;;;;;19.94;100.00;100760.48;1697376;83;21024;-84
2021/09/13 06:51:39;;;;;;;12.47;5.65;;;;;;;20.06;100.00;100759.11;1693022;83;21165;-82
2021/09/13 06:54:06;;;;;;;17.65;5.45;;;;;;;20.15;100.00;100758.03;1709821;83;21065;-85
2021/09/13 06:56:34;;;;;;;12.23;5.28;;;;;;;20.23;100.00;100760.33;1689925;83;21046;-82
2021/09/13 06:59:01;;;;;;;9.63;4.03;;;;;;;20.32;100.00;100763.22;1709984;83;21486;-83
2021/09/13 07:01:33;;;;;;;8.58;4.33;;;;;;;20.43;100.00;100764.66;1709216;81;21116;-83
2021/09/13 07:04:01;;;;;;;13.25;5.10;;;;;;;20.55;100.00;100767.70;1743460;81;21350;-83
2021/09/13 07:06:28;;;;;;;14.25;4.83;;;;;;;20.70;100.00;100766.41;1725171;82;21018;-84
2021/09/13 07:08:58;;;;;;;12.93;4.92;;;;;;;20.85;98.99;100770.45;1732910;81;20972;-85
2021/09/13 07:11:26;;;;;;;12.25;4.72;;;;;;;21.00;97.17;100763.84;1717762;82;21016;-85
2021/09/13 07:13:55;;;;;;;8.78;4.80;;;;;;;21.15;92.58;100765.19;1726566;82;20998;-84
2021/09/13 07:16:23;;;;;;;13.75;5.55;;;;;;;21.28;88.57;100767.53;1726661;82;21076;-82
2021/09/13 07:18:51;;;;;;;10.03;4.72;;;;;;;21.41;90.34;100762.92;1747921;82;20998;-83
2021/09/13 07:21:20;;;;;;;16.17;5.17;;;;;;;21.55;86.60;100764.41;1734585;81;21091;-84
2021/09/13 07:23:48;;;;;;;13.20;5.03;;;;;;;21.66;87.86;100766.63;1705188;82;21086;-84
2021/09/13 07:26:15;;;;;;;12.05;5.12;;;;;;;21.80;84.78;100770.76;1668248;84;21144;-83
2021/09/13 07:28:42;;;;;;;13.20;4.65;;;;;;;21.89;76.30;100764.34;1654454;86;21161;-83
2021/09/13 07:31:09;;;;;;;9.80;4.70;;;;;;;21.98;74.73;100766.37;1675130;83;22268;-82
2021/09/13 07:33:36;;;;;;;9.73;4.70;;;;;;;22.05;76.84;100761.47;1679106;85;21040;-83
2021/09/13 07:36:03;;;;;;;11.53;4.75;;;;;;;22.14;74.65;100758.70;1663542;85;21090;-83
2021/09/13 07:38:31;;;;;;;13.80;4.25;;;;;;;22.21;74.92;100759.58;1641082;85;21896;-84
2021/09/13 07:40:58;;;;;;;10.90;4.47;;;;;;;22.32;70.56;100759.58;1658342;84;21243;-83
2021/09/13 07:43:25;;;;;;;10.50;4.47;;;;;;;22.41;70.64;100755.83;1626691;87;21078;-84
2021/09/13 07:45:54;;;;;;;13.50;4.20;;;;;;;22.54;71.96;100756.45;1639686;86;21081;-85
2021/09/13 07:48:22;;;;;;;6.97;2.90;;;;;;;22.67;63.99;100755.22;1688216;84;21022;-82
2021/09/13 07:50:50;;;;;;;11.85;2.90;;;;;;;22.82;61.00;100754.30;1726692;82;21030;-83
2021/09/13 07:53:17;;;;;;;11.40;3.33;;;;;;;22.97;56.91;100752.37;1711294;82;21200;-84
2021/09/13 07:55:44;;;;;;;9.15;3.67;;;;;;;23.12;52.14;100756.74;1700460;83;21042;-81
2021/09/13 07:58:11;;;;;;;7.72;3.17;;;;;;;23.25;51.65;100749.39;1710625;81;21377;-83
2021/09/13 08:00:38;;;;;;;5.40;3.10;;;;;;;23.42;51.22;100745.92;1722529;83;21089;-84
2021/09/13 08:03:05;;;;;;;5.95;3.60;;;;;;;23.58;50.87;100749.57;1662693;85;21623;-83
2021/09/13 08:05:32;;;;;;;7.92;3.40;;;;;;;23.75;50.97;100738.59;1663631;85;21159;-82
2021/09/13 08:07:59;;;;;;;8.18;2.80;;;;;;;23.88;49.44;100745.27;1682925;85;21083;-83
2021/09/13 08:10:26;;;;;;;5.40;3.17;;;;;;;23.98;48.07;100738.25;1683616;83;21060;-83
2021/09/13 08:12:53;;;;;;;6.90;3.40;;;;;;;24.07;48.97;100735.72;1689021;83;21038;-84
2021/09/13 08:15:23;;;;;;;9.70;3.67;;;;;;;24.16;48.39;100738.19;1672679;84;21561;-82
2021/09/13 08:17:51;;;;;;;5.37;3.27;;;;;;;24.29;49.36;100734.20;1688307;84;21172;-83
2021/09/13 08:20:19;;;;;;;9.45;3.40;;;;;;;24.44;48.00;100729.22;1688187;85;21055;-85
2021/09/13 08:22:47;;;;;;;9.48;3.35;;;;;;;24.53;46.82;100726.14;1670187;84;21558;-83
2021/09/13 08:25:17;;;;;;;6.58;3.05;;;;;;;24.62;47.06;100728.59;1664142;85;21124;-83
2021/09/13 08:28:01;;;;;;;7.30;3.27;;;;;;;24.70;46.52;100723.89;1627964;86;21030;-83
2021/09/13 08:30:30;;;;;;;5.47;3.30;;;;;;;24.77;45.74;100725.72;1684891;83;20999;-85
2021/09/13 08:32:58;;;;;;;4.62;3.40;;;;;;;24.83;46.65;100724.92;1691190;83;21556;-84
2021/09/13 08:35:26;;;;;;;8.13;3.60;;;;;;;24.89;46.27;100726.22;1674946;84;21004;-85
2021/09/13 08:37:52;;;;;;;12.60;3.83;;;;;;;24.97;45.65;100731.02;1697618;84;21062;-84
2021/09/13 08:40:20;;;;;;;8.23;4.05;;;;;;;25.02;46.99;100727.23;1649110;84;21768;-84
2021/09/13 08:42:49;;;;;;;9.28;4.03;;;;;;;25.12;46.67;100726.79;1721568;81;21110;-90
2021/09/13 08:45:32;;;;;;;7.17;3.70;;;;;;;25.19;45.17;100727.58;1698602;82;20963;-83
2021/09/13 08:48:06;;;;;;;5.90;3.98;;;;;;;25.24;45.03;100723.77;1744769;82;32610;-83
2021/09/13 08:50:41;;;;;;;6.47;3.87;;;;;;;25.32;45.71;100726.73;1723386;81;21548;-85
2021/09/13 08:52:56;;;;;;;11.45;4.00;;;;;;;25.38;44.74;100722.41;1708276;83;21081;-84
2021/09/13 08:55:23;;;;;;;10.35;4.17;;;;;;;25.42;45.20;100713.81;1696008;83;21160;-85
2021/09/13 08:57:51;;;;;;;7.90;4.05;;;;;;;25.45;45.00;100720.55;1721462;82;21002;-86
2021/09/13 09:00:20;;;;;;;12.63;4.28;;;;;;;25.50;45.46;100713.56;1726852;82;21014;-86
2021/09/13 09:02:48;;;;;;;12.10;4.12;;;;;;;25.56;44.68;100709.73;1721613;81;21066;-87
2021/09/13 09:05:15;;;;;;;17.67;4.80;;;;;;;25.62;44.55;100708.88;1718227;82;20963;-87
2021/09/13 09:07:54;;;;;;;10.35;3.87;;;;;;;25.66;44.94;100702.91;1720388;82;21532;-86
2021/09/13 09:10:27;;;;;;;12.73;4.22;;;;;;;25.76;45.70;100705.63;1697337;82;21698;-84
2021/09/13 09:13:15;;;;;;;6.25;4.00;;;;;;;25.85;44.68;100706.19;1694292;81;21061;-86
2021/09/13 09:16:00;;;;;;;6.90;4.17;;;;;;;25.93;45.15;100705.92;1679049;84;21002;-85
2021/09/13 09:18:48;;;;;;;6.42;3.90;;;;;;;26.00;42.37;100700.03;1668351;83;21611;-86
2021/09/13 09:21:30;;;;;;;20.45;7.40;;;;;;;26.03;43.01;100698.27;1712922;83;21166;-85
2021/09/13 09:24:05;;;;;;;5.72;3.90;;;;;;;26.07;42.13;100693.32;1701270;83;21564;-89
2021/09/13 09:26:32;;;;;;;7.67;4.08;;;;;;;26.12;42.64;100693.51;1683358;84;21056;-86
2021/09/13 09:29:01;;;;;;;7.28;4.00;;;;;;;26.19;42.21;100693.47;1671911;83;20979;-86
2021/09/13 09:31:41;;;;;;;8.43;4.15;;;;;;;26.26;42.06;100691.06;1719357;81;21599;-88
2021/09/13 09:34:20;;;;;;;7.53;3.90;;;;;;;26.32;41.87;100690.68;1711665;83;21079;-88
2021/09/13 09:39:53;;;;;;;12.93;4.17;;;;;;;26.42;42.33;100684.87;1689118;83;21096;-86
2021/09/13 09:42:37;;;;;;;6.22;3.87;;;;;;;26.50;41.95;100679.75;1686245;83;21093;-90
2021/09/13 09:45:19;;;;;;;8.03;3.65;;;;;;;26.59;41.73;100686.45;1689252;83;21086;-86
2021/09/13 09:48:07;;;;;;;8.48;4.12;;;;;;;26.64;41.15;100681.78;1668550;83;21065;-86
2021/09/13 09:50:36;;;;;;;11.68;4.50;;;;;;;26.66;39.98;100684.52;1699880;83;22221;-85
2021/09/13 09:53:17;;;;;;;8.80;3.85;;;;;;;26.71;39.91;100679.36;1714925;83;21543;-87
2021/09/13 09:55:51;;;;;;;9.90;3.95;;;;;;;26.74;40.28;100681.56;1655294;86;21516;-86
2021/09/13 09:58:17;;;;;;;9.85;4.35;;;;;;;26.83;40.39;100674.13;1645714;87;21065;-88
2021/09/13 10:03:43;;;;;;;6.83;3.72;;;;;;;26.97;39.19;100666.75;1789925;78;22082;-85
2021/09/13 10:06:15;;;;;;;10.48;4.10;;;;;;;26.97;38.73;100672.09;1755978;81;21489;-87
2021/09/13 10:08:41;;;;;;;8.58;4.45;;;;;;;27.06;38.64;100672.09;1702428;81;20929;-87
2021/09/13 10:11:10;;;;;;;9.13;4.22;;;;;;;27.10;38.90;100667.12;1712251;83;21006;-84
2021/09/13 10:13:38;;;;;;;10.55;3.95;;;;;;;27.12;38.88;100669.59;1691696;83;21021;-87
2021/09/13 10:16:06;;;;;;;8.40;3.90;;;;;;;27.15;37.79;100660.61;1691714;83;21516;-84
2021/09/13 10:18:35;;;;;;;8.35;4.90;;;;;;;27.17;37.60;100657.70;1705330;83;20958;-86
2021/09/13 10:21:03;;;;;;;14.05;4.22;;;;;;;27.20;37.88;100653.25;1713863;81;21157;-85
2021/09/13 10:23:30;;;;;;;7.75;3.25;;;;;;;27.22;36.78;100657.32;1662369;85;21521;-85
2021/09/13 10:25:57;;;;;;;7.40;3.95;;;;;;;27.23;37.38;100662.13;1702218;83;21003;-86
2021/09/13 10:28:25;;;;;;;10.25;4.17;;;;;;;27.30;37.57;100664.73;1702175;83;21058;-89
2021/09/13 10:30:53;;;;;;;7.47;4.00;;;;;;;27.30;37.50;100661.52;1742993;82;21694;-85
2021/09/13 10:33:20;;;;;;;6.85;3.77;;;;;;;27.31;37.17;100655.14;1736144;81;21096;-83
2021/09/13 10:36:01;;;;;;;7.92;4.08;;;;;;;27.32;36.66;100654.10;1727034;82;22019;-85
2021/09/13 10:38:44;;;;;;;8.78;3.95;;;;;;;27.34;36.89;100658.70;1727458;82;21527;-86
2021/09/13 10:41:33;;;;;;;9.58;4.33;;;;;;;27.41;36.61;100657.27;1722052;80;21093;-88
2021/09/13 10:44:06;;;;;;;9.03;4.00;;;;;;;27.51;36.91;100651.42;1753727;80;21101;-86
2021/09/13 10:47:03;;;;;;;10.10;3.75;;;;;;;27.55;37.18;100649.91;1754122;80;21124;-85
2021/09/13 10:49:31;;;;;;;11.25;4.30;;;;;;;27.59;35.76;100647.59;1756034;80;21053;-88
2021/09/13 10:52:30;;;;;;;8.88;4.50;;;;;;;27.56;36.21;100646.20;1672924;83;21022;-87
2021/09/13 10:55:18;;;;;;;6.00;4.20;;;;;;;27.55;36.27;100645.91;1756134;80;21001;-85
2021/09/13 10:58:03;;;;;;;13.20;4.65;;;;;;;27.54;36.62;100644.27;1759378;80;21096;-88
2021/09/13 11:00:49;;;;;;;6.83;4.53;;;;;;;27.61;36.47;100640.97;1720632;81;21795;-85
2021/09/13 11:03:31;;;;;;;6.47;4.50;;;;;;;27.67;36.09;100636.06;1691763;83;21746;-85
2021/09/13 11:06:13;;;;;;;9.05;4.80;;;;;;;27.76;35.15;100637.08;1709525;82;21055;-84
2021/09/13 11:08:47;;;;;;;11.75;4.53;;;;;;;27.78;33.63;100638.47;1699658;82;21298;-86
2021/09/13 11:11:20;;;;;;;8.53;4.42;;;;;;;27.74;34.06;100635.14;1674611;84;21024;-84
2021/09/13 11:13:59;;;;;;;9.18;4.47;;;;;;;27.73;35.63;100634.84;1682920;83;21833;-89
2021/09/13 11:16:29;;;;;;;10.18;4.70;;;;;;;27.75;34.10;100630.89;1677760;84;21105;-88
2021/09/13 11:19:02;;;;;;;9.23;5.00;;;;;;;27.70;34.71;100625.43;1720936;80;21100;-87
2021/09/13 11:21:33;;;;;;;9.63;4.40;;;;;;;27.64;33.81;100625.81;1755433;80;21117;-86
2021/09/13 11:24:06;;;;;;;11.75;4.53;;;;;;;27.54;33.60;100620.20;1737839;80;21677;-89
2021/09/13 11:26:59;;;;;;;10.18;4.67;;;;;;;27.46;34.35;100620.02;1732593;81;21053;-87
2021/09/13 11:29:33;;;;;;;7.75;4.97;;;;;;;27.43;34.32;100617.79;1761294;80;21611;-86
2021/09/13 11:32:15;;;;;;;8.83;4.87;;;;;;;27.45;34.71;100614.88;1731008;80;21069;-89
2021/09/13 11:34:47;;;;;;;7.30;4.70;;;;;;;27.48;34.75;100614.44;1710719;82;21066;-90
2021/09/13 11:37:25;;;;;;;8.85;4.75;;;;;;;27.51;34.81;100612.12;1690128;83;21600;-84
2021/09/13 11:39:57;;;;;;;6.17;4.15;;;;;;;27.60;34.40;100607.78;1697844;82;21092;-86
2021/09/13 11:42:32;;;;;;;10.45;4.33;;;;;;;27.71;34.48;100608.34;1696332;83;21045;-83
2021/09/13 11:45:12;;;;;;;8.38;4.47;;;;;;;27.77;34.04;100607.41;1695122;82;20999;-85
2021/09/13 11:47:43;;;;;;;6.35;4.40;;;;;;;27.84;34.33;100604.64;1678157;83;20983;-87
2021/09/13 11:50:13;;;;;;;8.85;4.58;;;;;;;27.82;34.30;100600.84;1709693;82;21048;-85
2021/09/13 11:52:40;;;;;;;12.07;4.47;;;;;;;27.78;34.43;100600.19;1719460;82;21977;-89